Time;durP1;ratioP1;P1;durP2;ratioP2;P2;SDS_P1;SDS_P2;PMS_P1;PMS_P2;Temp;Humidity;BMP_temperature;BMP_pressure;BME280_temperature;BME280_humidity;BME280_pressure;Samples;Min_cycle;Max_cycle;Signal;HPM_P1;HPM_P2
2022/05/06 00:01:38;;;;;;;38.73;26.07;;;;;;;9.58;93.67;102432.41;4975875;28;20442;-48
2022/05/06 00:04:06;;;;;;;31.80;24.57;;;;;;;9.56;93.80;102438.88;4976060;28;20431;-48
2022/05/06 00:06:36;;;;;;;31.40;24.80;;;;;;;9.54;94.06;102440.81;4975372;28;20474;-47
2022/05/06 00:09:04;;;;;;;30.47;24.20;;;;;;;9.50;93.85;102434.94;4976056;28;20800;-44
2022/05/06 00:11:32;;;;;;;33.27;25.73;;;;;;;9.48;94.01;102439.59;4975658;28;20446;-47
2022/05/06 00:14:00;;;;;;;30.57;24.20;;;;;;;9.46;94.31;102438.91;4976076;28;20435;-45
2022/05/06 00:16:28;;;;;;;29.80;23.37;;;;;;;9.41;94.16;102436.66;4975401;28;20474;-44
2022/05/06 00:18:56;;;;;;;36.10;25.83;;;;;;;9.38;94.32;102442.28;4975854;28;20505;-45
2022/05/06 00:21:23;;;;;;;31.53;24.33;;;;;;;9.34;94.50;102442.75;4975640;28;20438;-46
2022/05/06 00:23:52;;;;;;;33.43;26.10;;;;;;;9.31;94.46;102438.56;4975608;28;20435;-47
2022/05/06 00:26:20;;;;;;;30.40;24.90;;;;;;;9.30;94.59;102446.69;4975361;28;20470;-47
2022/05/06 00:28:48;;;;;;;40.27;26.60;;;;;;;9.24;95.01;102442.78;4975731;28;20803;-45
2022/05/06 00:31:15;;;;;;;44.23;28.07;;;;;;;9.24;95.10;102440.13;4975470;28;20809;-48
2022/05/06 00:33:43;;;;;;;31.27;25.33;;;;;;;9.25;95.90;102438.31;4975676;28;20445;-49
2022/05/06 00:36:11;;;;;;;35.37;28.43;;;;;;;9.23;95.73;102437.59;4975074;28;20471;-47
2022/05/06 00:38:39;;;;;;;39.30;27.80;;;;;;;9.24;96.22;102436.63;4975244;28;20458;-48
2022/05/06 00:41:08;;;;;;;41.50;25.03;;;;;;;9.21;95.95;102440.41;4975295;28;20450;-47
2022/05/06 00:43:40;;;;;;;34.23;27.30;;;;;;;9.18;96.16;102435.38;4975396;28;20446;-47
2022/05/06 00:46:12;;;;;;;42.73;27.90;;;;;;;9.15;96.55;102429.50;4974923;28;20477;-48
2022/05/06 00:48:42;;;;;;;39.03;26.73;;;;;;;9.11;96.35;102430.81;4975240;28;20479;-49
2022/05/06 00:51:10;;;;;;;33.73;24.90;;;;;;;9.06;96.30;102430.38;4974888;28;20461;-49
2022/05/06 00:53:38;;;;;;;34.07;25.93;;;;;;;8.99;96.16;102430.13;4974204;28;20801;-48
2022/05/06 00:56:08;;;;;;;40.03;28.47;;;;;;;8.90;96.28;102431.00;4974736;28;20494;-47
2022/05/06 00:58:38;;;;;;;39.23;26.10;;;;;;;8.82;96.28;102433.53;4975017;28;20453;-47
2022/05/06 01:01:07;;;;;;;42.70;29.30;;;;;;;8.72;95.94;102435.41;4974919;28;20820;-47
2022/05/06 01:03:35;;;;;;;33.70;27.20;;;;;;;8.61;95.94;102432.88;4975002;28;20439;-49
2022/05/06 01:06:10;;;;;;;34.20;25.27;;;;;;;8.52;96.28;102420.44;4974635;28;21033;-46
2022/05/06 01:08:38;;;;;;;33.50;23.77;;;;;;;8.42;96.17;102424.94;4974720;28;20464;-44
2022/05/06 01:11:06;;;;;;;35.53;25.50;;;;;;;8.32;95.86;102428.47;4974626;28;20446;-48
2022/05/06 01:13:53;;;;;;;43.77;27.70;;;;;;;8.25;96.22;102432.59;4974922;28;20434;-45
2022/05/06 01:16:21;;;;;;;38.50;25.63;;;;;;;8.16;95.96;102435.25;4974194;28;20976;-47
2022/05/06 01:18:51;;;;;;;36.27;24.83;;;;;;;8.06;95.66;102432.63;4974871;28;20852;-50
2022/05/06 01:21:23;;;;;;;31.43;25.03;;;;;;;8.02;96.33;102441.84;4974561;28;20533;-48
2022/05/06 01:23:52;;;;;;;36.53;26.20;;;;;;;7.95;96.03;102438.06;4974739;28;20438;-49
2022/05/06 01:26:19;;;;;;;38.00;26.03;;;;;;;7.89;96.20;102451.88;4974075;28;20471;-47
2022/05/06 01:28:49;;;;;;;28.17;23.90;;;;;;;7.83;95.84;102441.81;4974494;28;20427;-48
2022/05/06 01:31:22;;;;;;;32.50;24.23;;;;;;;7.82;96.00;102454.25;4974196;28;20438;-48
2022/05/06 01:33:54;;;;;;;37.50;27.40;;;;;;;7.79;96.18;102453.69;4974608;28;20442;-50
2022/05/06 01:36:24;;;;;;;40.50;27.40;;;;;;;7.77;96.19;102447.66;4973584;28;20996;-44
2022/05/06 01:39:00;;;;;;;38.27;28.40;;;;;;;7.71;96.33;102451.72;4974304;28;20433;-45
2022/05/06 01:41:31;;;;;;;36.23;27.33;;;;;;;7.69;96.29;102447.53;4974291;28;20439;-48
2022/05/06 01:44:05;;;;;;;39.10;26.87;;;;;;;7.65;96.51;102457.56;4974411;28;20434;-46
2022/05/06 01:46:36;;;;;;;37.60;28.27;;;;;;;7.60;96.65;102451.00;4973725;28;20847;-51
2022/05/06 01:49:04;;;;;;;45.63;28.00;;;;;;;7.55;96.47;102453.22;4966357;28;20459;-46
2022/05/06 01:51:34;;;;;;;35.67;25.50;;;;;;;7.50;96.30;102447.44;4973703;28;20448;-46
2022/05/06 01:54:04;;;;;;;32.60;24.67;;;;;;;7.44;96.35;102445.34;4974297;28;20459;-49
2022/05/06 01:56:31;;;;;;;35.50;25.80;;;;;;;7.39;96.93;102450.22;4973584;28;20849;-45
2022/05/06 01:58:59;;;;;;;34.67;25.57;;;;;;;7.32;96.53;102449.09;4974055;28;20442;-47
2022/05/06 02:01:26;;;;;;;42.00;27.20;;;;;;;7.27;96.99;102457.44;4973763;28;20445;-50
2022/05/06 02:06:40;;;;;;;37.37;25.23;;;;;;;7.29;97.36;102450.19;4972999;28;20477;-49
2022/05/06 02:09:09;;;;;;;40.03;28.23;;;;;;;7.31;97.23;102450.06;4973931;28;20434;-44
2022/05/06 02:11:36;;;;;;;39.83;26.83;;;;;;;7.30;96.78;102454.53;4973618;28;20438;-48
2022/05/06 02:14:04;;;;;;;45.97;29.90;;;;;;;7.27;96.94;102449.47;4973695;28;20442;-47
2022/05/06 02:16:32;;;;;;;42.30;25.57;;;;;;;7.28;97.12;102458.28;4972982;28;20485;-46
2022/05/06 02:19:00;;;;;;;37.00;28.60;;;;;;;7.26;97.43;102449.63;4973504;28;20970;-45
2022/05/06 02:21:27;;;;;;;37.00;27.20;;;;;;;7.23;97.81;102445.41;4973246;28;20443;-44
2022/05/06 02:23:55;;;;;;;38.67;28.80;;;;;;;7.21;96.78;102442.06;4973676;28;20438;-47
2022/05/06 02:26:24;;;;;;;32.57;22.83;;;;;;;7.18;96.91;102448.47;4973031;28;20471;-44
2022/05/06 02:28:51;;;;;;;36.07;24.67;;;;;;;7.13;97.51;102450.69;4973448;28;20446;-45
2022/05/06 02:34:04;;;;;;;37.97;25.90;;;;;;;7.01;97.14;102454.41;4973503;28;20469;-45
2022/05/06 02:36:31;;;;;;;40.13;26.17;;;;;;;6.96;96.69;102450.47;4972913;28;20482;-52
2022/05/06 02:38:59;;;;;;;31.00;22.63;;;;;;;6.92;97.32;102451.69;4973386;28;20431;-48
2022/05/06 02:41:28;;;;;;;33.47;24.13;;;;;;;6.89;96.93;102446.66;4972886;28;20450;-48
2022/05/06 02:43:56;;;;;;;35.43;26.63;;;;;;;6.84;96.60;102448.88;4973472;28;20438;-48
2022/05/06 02:46:24;;;;;;;34.63;24.17;;;;;;;6.79;96.90;102456.34;4972813;28;20489;-49
2022/05/06 02:48:52;;;;;;;32.40;24.23;;;;;;;6.78;97.09;102455.50;4973270;28;20427;-45
2022/05/06 02:51:20;;;;;;;32.90;24.73;;;;;;;6.76;97.21;102459.25;4973318;28;20443;-46
2022/05/06 02:53:47;;;;;;;32.57;24.80;;;;;;;6.76;96.76;102456.59;4973112;28;20439;-43
2022/05/06 02:56:15;;;;;;;33.70;23.30;;;;;;;6.73;96.91;102455.06;4972828;28;20463;-50
2022/05/06 02:58:44;;;;;;;30.67;22.23;;;;;;;6.71;97.50;102456.16;4973229;28;20477;-51
2022/05/06 03:01:11;;;;;;;35.93;24.93;;;;;;;6.66;96.82;102453.88;4972990;28;20445;-47
2022/05/06 03:03:39;;;;;;;35.20;25.60;;;;;;;6.60;96.29;102451.78;4973019;28;20435;-44
2022/05/06 03:06:07;;;;;;;29.23;22.70;;;;;;;6.59;97.48;102450.09;4972525;28;20471;-47
2022/05/06 03:08:35;;;;;;;32.77;24.83;;;;;;;6.57;96.88;102446.75;4972599;28;20457;-44
2022/05/06 03:11:03;;;;;;;30.67;22.93;;;;;;;6.56;97.15;102455.66;4972937;28;20445;-46
2022/05/06 03:13:30;;;;;;;31.50;21.60;;;;;;;6.58;96.97;102456.34;4973110;28;20461;-45
2022/05/06 03:15:59;;;;;;;27.20;21.67;;;;;;;6.59;96.94;102450.94;4972731;28;20477;-49
2022/05/06 03:18:27;;;;;;;28.20;22.60;;;;;;;6.63;97.13;102449.69;4975940;28;20988;-46
2022/05/06 03:20:55;;;;;;;28.63;21.93;;;;;;;6.66;97.33;102453.88;4976671;28;20445;-48
2022/05/06 03:23:23;;;;;;;26.50;22.73;;;;;;;6.68;97.00;102458.13;4977043;28;20434;-44
2022/05/06 03:25:50;;;;;;;30.10;22.97;;;;;;;6.74;97.34;102458.56;4976569;28;20443;-48
2022/05/06 03:28:18;;;;;;;27.60;21.40;;;;;;;6.75;98.15;102449.66;4976805;28;20455;-47
2022/05/06 03:30:46;;;;;;;23.87;21.27;;;;;;;6.77;97.66;102460.94;4976511;28;20445;-48
2022/05/06 03:33:17;;;;;;;24.67;20.97;;;;;;;6.78;97.60;102460.81;4976698;28;20445;-45
2022/05/06 03:35:44;;;;;;;31.60;23.47;;;;;;;6.77;97.26;102453.00;4976045;28;20460;-46
2022/05/06 03:38:13;;;;;;;28.00;22.10;;;;;;;6.78;97.19;102452.84;4976354;28;21014;-44
2022/05/06 03:40:41;;;;;;;31.93;22.87;;;;;;;6.80;97.46;102452.72;4976297;28;20477;-47
2022/05/06 03:43:09;;;;;;;38.17;24.87;;;;;;;6.85;97.51;102455.81;4976511;28;20441;-48
2022/05/06 03:45:39;;;;;;;30.30;22.67;;;;;;;6.90;98.05;102454.47;4975896;28;20948;-45
2022/05/06 03:48:07;;;;;;;31.57;24.47;;;;;;;6.99;97.43;102452.84;4968629;28;20538;-45
2022/05/06 03:53:21;;;;;;;30.03;24.80;;;;;;;7.20;97.74;102457.13;4976308;28;20801;-44
2022/05/06 03:55:49;;;;;;;32.83;24.50;;;;;;;7.30;97.56;102457.19;4975856;28;20805;-44
2022/05/06 03:58:16;;;;;;;31.13;23.50;;;;;;;7.42;97.97;102464.06;4976263;28;20479;-46
2022/05/06 04:00:44;;;;;;;32.07;25.63;;;;;;;7.53;97.95;102460.47;4975846;28;20825;-44
2022/05/06 04:03:12;;;;;;;30.03;24.30;;;;;;;7.66;97.70;102471.69;4976189;28;20435;-48
2022/05/06 04:05:41;;;;;;;33.40;26.60;;;;;;;7.78;98.23;102457.31;4975522;28;20445;-47
2022/05/06 04:08:09;;;;;;;34.40;25.10;;;;;;;7.93;98.00;102458.59;4975758;28;20469;-44
2022/05/06 04:10:37;;;;;;;43.67;28.60;;;;;;;8.07;97.43;102467.97;4975845;28;20461;-45
2022/05/06 04:13:04;;;;;;;38.40;28.80;;;;;;;8.23;97.72;102462.97;4975744;28;20446;-49
2022/05/06 04:15:33;;;;;;;40.63;28.30;;;;;;;8.36;97.34;102463.56;4975877;28;20442;-45
2022/05/06 04:18:01;;;;;;;38.43;27.87;;;;;;;8.50;97.65;102457.81;4975524;28;20980;-48
2022/05/06 04:23:30;;;;;;;42.53;28.57;;;;;;;8.74;97.81;102463.53;4975734;28;20451;-47
2022/05/06 04:25:59;;;;;;;35.87;27.67;;;;;;;8.86;97.71;102461.53;4975492;28;20458;-45
2022/05/06 04:28:27;;;;;;;31.77;26.87;;;;;;;8.94;97.67;102466.97;4975482;28;20450;-48
2022/05/06 04:30:56;;;;;;;37.07;27.87;;;;;;;9.06;97.56;102465.81;4975483;28;20802;-45
2022/05/06 04:33:25;;;;;;;38.87;30.33;;;;;;;9.15;97.67;102461.44;4975537;28;20431;-49
2022/05/06 04:35:54;;;;;;;40.03;29.77;;;;;;;9.23;97.83;102465.06;4975038;28;20446;-48
2022/05/06 04:38:24;;;;;;;37.83;30.27;;;;;;;9.33;97.89;102462.34;4975254;28;20487;-49
2022/05/06 04:40:54;;;;;;;40.77;27.83;;;;;;;9.44;97.89;102467.50;4975603;28;20430;-46
2022/05/06 04:43:21;;;;;;;32.53;26.83;;;;;;;9.59;97.75;102465.19;4975838;28;20454;-45
2022/05/06 04:45:50;;;;;;;37.73;29.43;;;;;;;9.68;97.77;102469.59;4974987;28;20431;-46
2022/05/06 04:48:18;;;;;;;45.87;30.20;;;;;;;9.71;97.87;102470.16;4975059;28;20447;-47
2022/05/06 04:50:47;;;;;;;41.13;29.20;;;;;;;9.77;97.86;102471.38;4975386;28;20445;-44
2022/05/06 04:53:15;;;;;;;37.37;29.07;;;;;;;9.84;97.89;102464.47;4975090;28;20439;-46
2022/05/06 04:55:46;;;;;;;36.90;28.93;;;;;;;9.87;97.63;102469.50;4974799;28;20804;-45
2022/05/06 04:58:15;;;;;;;38.53;28.63;;;;;;;9.91;97.76;102473.56;4975026;28;20533;-44
2022/05/06 05:00:43;;;;;;;38.63;29.87;;;;;;;9.98;97.58;102480.78;4974894;28;20438;-44
2022/05/06 05:03:11;;;;;;;39.23;27.83;;;;;;;10.00;97.37;102470.81;4974960;28;20435;-46
2022/05/06 05:05:39;;;;;;;38.87;29.50;;;;;;;10.15;97.52;102467.66;4974672;28;20435;-46
2022/05/06 05:08:09;;;;;;;36.37;27.77;;;;;;;10.23;97.35;102476.59;4974823;28;20463;-48
2022/05/06 05:10:36;;;;;;;36.13;29.77;;;;;;;10.30;97.05;102472.31;4974697;28;20431;-51
2022/05/06 05:13:05;;;;;;;41.90;29.67;;;;;;;10.44;97.34;102479.78;4974999;28;20433;-51
2022/05/06 05:15:33;;;;;;;38.93;27.93;;;;;;;10.59;96.85;102476.56;4974629;28;20441;-49
2022/05/06 05:18:00;;;;;;;40.37;30.63;;;;;;;10.66;96.15;102472.28;4974261;28;20481;-48
2022/05/06 05:20:28;;;;;;;49.00;31.90;;;;;;;10.76;95.97;102473.84;4974497;28;20442;-50
2022/05/06 05:22:56;;;;;;;47.10;33.10;;;;;;;10.82;95.73;102480.41;4975011;28;20445;-53
2022/05/06 05:25:24;;;;;;;42.20;30.90;;;;;;;10.83;94.85;102479.41;4974722;28;20434;-52
2022/05/06 05:27:51;;;;;;;40.00;29.43;;;;;;;10.93;95.40;102472.97;4973978;28;20475;-50
2022/05/06 05:30:20;;;;;;;40.77;29.27;;;;;;;11.01;95.04;102480.22;4974192;28;20434;-50
2022/05/06 05:32:48;;;;;;;43.93;31.47;;;;;;;10.94;93.33;102482.66;4974621;28;20473;-51
2022/05/06 05:35:16;;;;;;;49.60;32.00;;;;;;;10.93;93.59;102485.50;4974607;28;20435;-49
2022/05/06 05:37:43;;;;;;;43.80;31.20;;;;;;;10.97;93.50;102482.34;4973914;28;20475;-46
2022/05/06 05:40:11;;;;;;;45.03;31.13;;;;;;;11.06;93.87;102493.91;4973548;28;20470;-49
2022/05/06 05:42:39;;;;;;;43.03;31.50;;;;;;;11.17;94.01;102492.81;4974240;28;20450;-53
2022/05/06 05:50:39;;;;;;;48.00;30.63;;;;;;;11.18;93.07;102473.97;4993370;28;20426;-51
2022/05/06 05:53:07;;;;;;;48.23;31.83;;;;;;;11.17;92.66;102476.81;4993295;28;21020;-47
2022/05/06 05:55:35;;;;;;;42.57;31.50;;;;;;;11.19;92.87;102480.97;4993206;28;20446;-47
2022/05/06 05:58:02;;;;;;;43.33;32.53;;;;;;;11.23;92.88;102484.19;4993455;28;20495;-49
2022/05/06 06:00:30;;;;;;;51.90;32.80;;;;;;;11.28;92.25;102485.38;4993180;28;20438;-52
2022/05/06 06:03:00;;;;;;;47.57;32.20;;;;;;;11.28;91.96;102485.38;4993370;28;20974;-51
2022/05/06 06:05:27;;;;;;;51.03;34.50;;;;;;;11.28;91.20;102476.53;4993286;28;20458;-50
2022/05/06 06:07:55;;;;;;;47.60;33.07;;;;;;;11.30;91.54;102479.84;4992608;28;20792;-52
2022/05/06 06:10:23;;;;;;;47.43;34.07;;;;;;;11.39;92.07;102470.91;4993120;28;20426;-45
2022/05/06 06:12:56;;;;;;;47.10;33.40;;;;;;;11.59;92.57;102481.16;4993298;28;20912;-45
2022/05/06 06:15:24;;;;;;;53.17;34.37;;;;;;;11.71;92.42;102481.75;4992957;28;20442;-51
2022/05/06 06:17:51;;;;;;;55.00;35.90;;;;;;;11.76;91.71;102483.94;4992261;28;20466;-48
2022/05/06 06:20:21;;;;;;;53.57;35.80;;;;;;;11.81;91.41;102481.59;4992477;28;20481;-51
2022/05/06 06:22:49;;;;;;;52.93;36.50;;;;;;;11.82;90.90;102485.97;4993277;28;20442;-44
2022/05/06 06:25:16;;;;;;;59.10;39.43;;;;;;;11.83;91.12;102485.78;4992944;28;20434;-43
2022/05/06 06:27:44;;;;;;;54.03;36.90;;;;;;;11.83;90.89;102490.28;4992138;28;20474;-46
2022/05/06 06:30:12;;;;;;;58.90;38.83;;;;;;;11.81;90.56;102482.44;4993050;28;20452;-47
2022/05/06 06:32:51;;;;;;;59.23;38.70;;;;;;;11.82;90.83;102483.28;4992914;28;20434;-43
2022/05/06 06:35:21;;;;;;;56.90;38.10;;;;;;;11.83;91.15;102480.44;4993198;28;20426;-47
2022/05/06 06:37:49;;;;;;;57.37;40.87;;;;;;;11.86;91.06;102481.94;4992341;28;20478;-45
2022/05/06 06:40:17;;;;;;;55.47;37.30;;;;;;;11.95;91.60;102489.00;4992450;28;20561;-48
2022/05/06 06:42:46;;;;;;;50.13;37.30;;;;;;;11.93;90.97;102494.53;4992534;28;20448;-45
2022/05/06 06:45:13;;;;;;;52.83;36.30;;;;;;;11.84;90.78;102494.66;4992280;28;20441;-51
2022/05/06 06:47:41;;;;;;;54.60;36.90;;;;;;;11.85;91.21;102493.66;4980828;28;20471;-50
2022/05/06 06:50:09;;;;;;;53.70;35.57;;;;;;;11.85;91.50;102499.00;4992802;28;20430;-48
2022/05/06 06:52:38;;;;;;;54.43;35.47;;;;;;;11.89;91.50;102495.84;4991860;28;20434;-45
2022/05/06 06:55:06;;;;;;;54.47;38.00;;;;;;;11.84;91.35;102492.81;4992411;28;20445;-44
2022/05/06 06:57:34;;;;;;;48.53;34.60;;;;;;;11.81;91.20;102486.97;4991812;28;20473;-45
2022/05/06 07:00:02;;;;;;;53.07;37.97;;;;;;;11.87;91.62;102497.84;4992180;28;20827;-47
2022/05/06 07:02:29;;;;;;;62.80;38.23;;;;;;;11.93;91.75;102491.00;4992247;28;20438;-44
2022/05/06 07:04:58;;;;;;;48.47;34.70;;;;;;;12.02;91.98;102490.88;4992533;28;20496;-44
2022/05/06 07:13:18;;;;;;;51.10;35.00;;;;;;;12.53;91.40;102491.59;4992454;28;20441;-46
2022/05/06 07:15:46;;;;;;;53.30;37.30;;;;;;;12.65;90.33;102488.44;4991846;28;20440;-48
2022/05/06 07:18:14;;;;;;;44.67;31.53;;;;;;;12.82;90.89;102496.44;4992210;28;20457;-44
2022/05/06 07:20:42;;;;;;;49.80;33.70;;;;;;;12.86;87.64;102484.41;4991780;28;20836;-49
2022/05/06 07:23:10;;;;;;;50.23;35.77;;;;;;;12.98;87.91;102493.75;4992456;28;20472;-47
2022/05/06 07:25:39;;;;;;;48.40;34.50;;;;;;;13.04;88.12;102480.53;4991906;28;20448;-50
2022/05/06 07:28:08;;;;;;;53.63;37.90;;;;;;;13.12;87.07;102488.56;4992193;28;20454;-49
2022/05/06 07:30:35;;;;;;;51.57;38.63;;;;;;;13.13;86.67;102487.56;4991918;28;20430;-46
2022/05/06 07:33:03;;;;;;;51.93;37.10;;;;;;;13.13;86.46;102492.94;4992094;28;20860;-49
2022/05/06 07:35:38;;;;;;;55.27;35.80;;;;;;;13.23;86.28;102498.91;4992120;28;20434;-48
2022/05/06 07:38:06;;;;;;;50.60;34.97;;;;;;;13.39;87.17;102498.03;4992278;28;20457;-48
2022/05/06 07:40:34;;;;;;;52.50;34.43;;;;;;;13.53;87.32;102497.31;4991978;28;20500;-45
2022/05/06 07:43:03;;;;;;;52.77;36.00;;;;;;;13.60;84.91;102500.97;4992065;28;20528;-49
2022/05/06 07:45:31;;;;;;;48.60;36.20;;;;;;;13.76;85.51;102490.19;4989535;28;20800;-48
2022/05/06 07:48:00;;;;;;;53.97;37.63;;;;;;;13.85;84.32;102486.47;4982825;28;20492;-47
2022/05/06 07:50:32;;;;;;;52.10;39.07;;;;;;;14.00;83.63;102485.69;4991961;28;20489;-52
2022/05/06 07:53:00;;;;;;;51.40;34.73;;;;;;;14.20;84.38;102486.91;4992021;28;20449;-47
2022/05/06 07:55:27;;;;;;;54.07;37.77;;;;;;;14.39;83.33;102483.78;4991841;28;20430;-51
2022/05/06 07:57:57;;;;;;;53.60;37.50;;;;;;;14.49;81.76;102481.69;4991569;28;20476;-52
2022/05/06 08:00:26;;;;;;;54.27;37.47;;;;;;;14.72;81.82;102481.69;4991706;28;20469;-47
2022/05/06 08:05:39;;;;;;;54.47;37.97;;;;;;;15.24;80.17;102477.09;4995348;28;20434;-45
2022/05/06 08:08:07;;;;;;;57.60;40.17;;;;;;;15.61;77.98;102468.13;4995485;28;20465;-48
2022/05/06 08:10:35;;;;;;;53.63;38.27;;;;;;;16.09;77.80;102466.63;4994974;28;20497;-48
2022/05/06 08:13:02;;;;;;;56.27;37.53;;;;;;;16.50;73.32;102464.94;4995516;28;20783;-46
2022/05/06 08:15:31;;;;;;;56.47;39.63;;;;;;;17.13;71.51;102466.72;4995320;28;20438;-50
2022/05/06 08:17:59;;;;;;;52.90;35.77;;;;;;;17.42;68.65;102471.00;4975531;28;20451;-52
2022/05/06 08:20:27;;;;;;;53.33;38.40;;;;;;;17.53;67.22;102465.03;4975436;28;20980;-45
2022/05/06 08:22:54;;;;;;;49.93;37.27;;;;;;;17.87;67.74;102477.66;4975604;28;20447;-50
2022/05/06 08:25:22;;;;;;;52.00;37.50;;;;;;;17.93;65.32;102479.56;4975689;28;20438;-50
2022/05/06 08:28:00;;;;;;;58.63;40.07;;;;;;;17.87;64.40;102476.81;4975635;28;20457;-50
2022/05/06 08:30:27;;;;;;;61.40;41.40;;;;;;;18.13;65.54;102483.13;4975525;28;20439;-48
2022/05/06 08:32:56;;;;;;;59.50;41.50;;;;;;;18.58;65.53;102478.84;4975527;28;20793;-49
2022/05/06 08:35:24;;;;;;;59.07;40.73;;;;;;;19.06;63.87;102474.06;4975653;28;20800;-48
2022/05/06 08:37:52;;;;;;;75.70;50.13;;;;;;;18.94;60.24;102466.78;4993503;28;20499;-50
2022/05/06 08:40:22;;;;;;;68.70;47.53;;;;;;;18.97;60.12;102474.47;4994693;28;20835;-47
2022/05/06 08:42:50;;;;;;;68.03;45.47;;;;;;;19.02;60.86;102474.69;4994879;28;20522;-44
2022/05/06 08:50:54;;;;;;;67.97;45.67;;;;;;;18.24;61.36;102477.16;4994714;28;20437;-44
2022/05/06 08:53:25;;;;;;;64.63;44.17;;;;;;;18.23;62.53;102474.63;4994892;28;20441;-45
2022/05/06 08:55:55;;;;;;;69.43;45.40;;;;;;;18.12;62.76;102470.69;4994146;28;20425;-46
2022/05/06 08:58:24;;;;;;;65.63;43.47;;;;;;;18.17;62.72;102467.34;4994462;28;20458;-45
2022/05/06 09:01:00;;;;;;;57.00;43.23;;;;;;;18.20;63.48;102467.78;4994133;28;20480;-48
2022/05/06 09:03:29;;;;;;;51.80;38.50;;;;;;;18.37;63.53;102467.41;4994722;28;20524;-50
2022/05/06 09:05:58;;;;;;;55.97;39.57;;;;;;;18.30;63.11;102475.50;4994536;28;20457;-47
2022/05/06 09:08:36;;;;;;;59.93;40.30;;;;;;;17.96;62.60;102470.22;4994356;28;20892;-50
2022/05/06 09:11:07;;;;;;;66.70;44.93;;;;;;;17.69;63.43;102472.00;4993968;28;20441;-48
2022/05/06 09:13:37;;;;;;;55.70;42.23;;;;;;;17.45;63.57;102465.22;4994458;28;20466;-53
2022/05/06 09:19:22;;;;;;;63.83;42.57;;;;;;;17.17;65.71;102472.53;4994145;28;20433;-51
2022/05/06 09:22:08;;;;;;;51.23;39.10;;;;;;;17.25;66.40;102474.22;4993787;28;20474;-52
2022/05/06 09:24:37;;;;;;;59.70;43.47;;;;;;;17.47;66.70;102459.63;4994099;28;20430;-49
2022/05/06 09:27:06;;;;;;;53.90;38.40;;;;;;;17.84;66.25;102461.03;4993460;28;20470;-50
2022/05/06 09:29:36;;;;;;;45.73;36.97;;;;;;;18.01;65.04;102465.88;4993943;28;20790;-53
2022/05/06 09:32:21;;;;;;;58.33;41.23;;;;;;;18.39;64.67;102462.63;4993518;28;20469;-51
2022/05/06 09:34:51;;;;;;;46.33;38.70;;;;;;;18.68;64.12;102454.13;4994063;28;20426;-51
2022/05/06 09:37:36;;;;;;;43.13;35.37;;;;;;;19.01;64.90;102459.50;4993680;28;20997;-44
2022/05/06 09:40:10;;;;;;;48.43;38.30;;;;;;;19.15;63.60;102451.16;4993630;28;20826;-48
2022/05/06 09:42:39;;;;;;;53.33;39.23;;;;;;;19.15;62.92;102456.56;4993628;28;20437;-46
2022/05/06 09:45:09;;;;;;;55.80;41.47;;;;;;;19.08;62.89;102453.06;4993697;28;20433;-48
2022/05/06 09:47:37;;;;;;;52.50;40.90;;;;;;;18.94;62.76;102462.22;4984819;28;20465;-46
2022/05/06 09:50:10;;;;;;;47.83;38.90;;;;;;;18.66;61.91;102458.94;4974181;28;21052;-47
2022/05/06 09:52:38;;;;;;;54.90;41.93;;;;;;;18.65;63.41;102455.38;4974107;28;20435;-50
2022/05/06 09:55:07;;;;;;;50.50;38.90;;;;;;;18.62;63.11;102461.22;4973967;28;20438;-49
2022/05/06 09:57:37;;;;;;;48.13;38.30;;;;;;;18.65;62.93;102455.38;4957701;28;20478;-47
2022/05/06 10:00:06;;;;;;;44.50;36.70;;;;;;;18.67;60.75;102450.59;4954654;29;20441;-49
2022/05/06 10:02:37;;;;;;;42.90;35.37;;;;;;;18.78;60.70;102449.16;4954562;29;20439;-46
2022/05/06 10:05:08;;;;;;;35.30;31.70;;;;;;;19.13;61.33;102450.53;4954513;29;20942;-44
2022/05/06 10:07:40;;;;;;;37.57;32.30;;;;;;;19.45;58.19;102437.13;4970420;28;20486;-46
2022/05/06 10:10:12;;;;;;;34.53;30.57;;;;;;;19.71;59.30;102440.56;4973864;28;20437;-48
2022/05/06 10:12:43;;;;;;;39.30;31.93;;;;;;;19.97;57.83;102442.31;4973859;28;20469;-47
2022/05/06 10:15:13;;;;;;;34.80;30.97;;;;;;;20.31;57.46;102436.47;4973824;28;20430;-44
2022/05/06 10:17:51;;;;;;;33.57;29.90;;;;;;;21.03;56.60;102437.69;4973137;28;20473;-46
2022/05/06 10:21:01;;;;;;;34.67;30.77;;;;;;;20.95;53.65;102427.16;4973492;28;20454;-46
2022/05/06 10:23:51;;;;;;;32.33;28.97;;;;;;;20.96;51.84;102426.09;4973617;28;20444;-46
2022/05/06 10:26:40;;;;;;;28.53;25.63;;;;;;;20.88;51.96;102424.50;4973039;28;20455;-48
2022/05/06 10:35:10;;;;;;;23.93;21.47;;;;;;;21.27;52.09;102415.13;4973523;28;20415;-49
2022/05/06 10:37:40;;;;;;;22.80;20.40;;;;;;;21.40;50.69;102409.56;4972931;28;20474;-46
2022/05/06 10:40:31;;;;;;;20.23;18.33;;;;;;;21.47;48.60;102412.19;4973296;28;20445;-47
2022/05/06 10:43:00;;;;;;;19.57;17.60;;;;;;;21.46;49.81;102408.63;4973584;28;21059;-46
2022/05/06 10:45:29;;;;;;;23.60;19.63;;;;;;;21.30;50.01;102402.97;4975081;28;20445;-46
2022/05/06 10:47:58;;;;;;;19.97;18.07;;;;;;;21.26;50.53;102413.50;4972472;28;20465;-46
2022/05/06 10:50:29;;;;;;;20.17;18.10;;;;;;;21.67;49.95;102404.59;4972915;28;20434;-49
2022/05/06 10:53:01;;;;;;;22.77;20.70;;;;;;;21.98;46.94;102395.41;4972921;28;20434;-49
2022/05/06 10:55:28;;;;;;;23.23;21.07;;;;;;;22.33;47.48;102398.19;4972902;28;20422;-47
2022/05/06 10:58:05;;;;;;;19.13;17.23;;;;;;;22.24;48.11;102391.44;4972702;28;20466;-44
2022/05/06 11:00:37;;;;;;;18.90;16.93;;;;;;;22.22;47.48;102393.59;4973252;28;20430;-46
2022/05/06 11:03:05;;;;;;;18.43;16.50;;;;;;;22.53;48.53;102390.53;4973051;28;20518;-46
2022/05/06 11:05:33;;;;;;;18.73;16.83;;;;;;;22.48;46.85;102393.13;4972752;28;20522;-46
2022/05/06 11:08:02;;;;;;;20.23;18.27;;;;;;;22.18;46.51;102392.38;4992004;28;20449;-44
2022/05/06 11:10:34;;;;;;;21.07;19.03;;;;;;;21.95;46.83;102390.44;4992043;28;20440;-49
2022/05/06 11:13:24;;;;;;;22.07;19.00;;;;;;;21.76;49.14;102392.34;4992168;28;20950;-44
2022/05/06 11:15:52;;;;;;;18.33;16.47;;;;;;;21.75;48.78;102387.97;4989414;28;20629;-49
2022/05/06 11:18:20;;;;;;;19.10;17.30;;;;;;;21.96;48.03;102386.66;4972886;28;20493;-49
2022/05/06 11:20:48;;;;;;;20.47;16.30;;;;;;;22.17;47.74;102388.00;4972737;28;20438;-49
2022/05/06 11:23:16;;;;;;;16.27;14.80;;;;;;;22.48;46.53;102385.81;4972912;28;20521;-49
2022/05/06 11:25:45;;;;;;;16.33;14.73;;;;;;;22.41;45.39;102378.81;4972389;28;20952;-51
2022/05/06 11:28:14;;;;;;;17.13;15.43;;;;;;;22.45;47.19;102388.16;4972605;28;20450;-45
2022/05/06 11:30:45;;;;;;;17.70;16.10;;;;;;;22.33;47.31;102379.16;4972214;28;20442;-47
2022/05/06 11:33:20;;;;;;;18.57;16.83;;;;;;;22.23;47.42;102378.91;4972939;28;20427;-50
2022/05/06 11:35:50;;;;;;;16.57;14.97;;;;;;;22.13;47.54;102374.06;4972389;28;20430;-49
2022/05/06 11:38:29;;;;;;;16.50;12.87;;;;;;;22.15;46.80;102377.38;4973649;28;21078;-47
2022/05/06 11:41:06;;;;;;;19.27;17.37;;;;;;;22.15;46.81;102374.66;4975949;28;20426;-46
2022/05/06 11:43:33;;;;;;;19.13;17.30;;;;;;;22.38;47.39;102366.53;4976634;28;20440;-46
2022/05/06 11:48:49;;;;;;;18.73;16.83;;;;;;;23.26;44.97;102373.66;4976398;28;20432;-52
2022/05/06 11:51:20;;;;;;;16.90;15.30;;;;;;;22.89;45.53;102371.25;4976031;28;20449;-50
2022/05/06 11:53:49;;;;;;;16.93;15.40;;;;;;;22.78;45.40;102368.56;4976707;28;20422;-50
2022/05/06 11:56:21;;;;;;;13.77;12.67;;;;;;;22.96;45.09;102373.84;4975948;28;20840;-49
2022/05/06 11:58:50;;;;;;;14.97;13.50;;;;;;;23.29;44.47;102362.31;4976355;28;20470;-45
2022/05/06 12:01:27;;;;;;;15.97;14.40;;;;;;;23.49;44.20;102360.84;4976031;28;20978;-46
2022/05/06 12:03:59;;;;;;;14.13;12.60;;;;;;;23.77;42.99;102365.44;4976070;28;20798;-47
2022/05/06 12:06:37;;;;;;;12.97;11.90;;;;;;;23.51;42.88;102355.97;4975607;28;20505;-47